Time;durP1;ratioP1;P1;durP2;ratioP2;P2;SDS_P1;SDS_P2;PMS_P1;PMS_P2;Temp;Humidity;BMP_temperature;BMP_pressure;BME280_temperature;BME280_humidity;BME280_pressure;Samples;Min_cycle;Max_cycle;Signal;HPM_P1;HPM_P2
2022/10/07 00:00:10;;;;;;;;;;;20.70;45.00;;;;;;5037868;28;19974;-72
2022/10/07 00:02:37;;;;;;;;;;;20.80;45.00;;;;;;5032622;28;19928;-72
2022/10/07 00:05:06;;;;;;;;;;;20.80;45.00;;;;;;5046376;28;19976;-70
2022/10/07 00:07:32;;;;;;;;;;;20.70;45.00;;;;;;5038374;28;19984;-74
2022/10/07 00:09:59;;;;;;;;;;;20.70;45.00;;;;;;5035187;28;19932;-74
2022/10/07 00:12:26;;;;;;;;;;;20.80;45.10;;;;;;5058058;28;19939;-71
2022/10/07 00:14:53;;;;;;;;;;;20.70;44.90;;;;;;5050506;28;19921;-74
2022/10/07 00:17:21;;;;;;;;;;;20.80;45.00;;;;;;5041959;28;19925;-71
2022/10/07 00:19:48;;;;;;;;;;;20.70;44.90;;;;;;5023426;28;19921;-74
2022/10/07 00:22:15;;;;;;;;;;;20.70;44.90;;;;;;5031479;28;20279;-74
2022/10/07 00:24:41;;;;;;;;;;;20.70;44.90;;;;;;5014770;28;19926;-74
2022/10/07 00:27:08;;;;;;;;;;;20.70;44.80;;;;;;5044298;28;19988;-69
2022/10/07 00:29:35;;;;;;;;;;;20.70;44.80;;;;;;5053518;28;19921;-73
2022/10/07 00:32:01;;;;;;;;;;;20.70;44.80;;;;;;5027848;28;20016;-71
2022/10/07 00:34:29;;;;;;;;;;;20.70;44.80;;;;;;5033635;28;20016;-74
2022/10/07 00:36:56;;;;;;;;;;;20.70;44.70;;;;;;5045803;28;19952;-70
2022/10/07 00:39:23;;;;;;;;;;;20.70;44.70;;;;;;5035388;28;19971;-70
2022/10/07 00:41:52;;;;;;;;;;;20.70;44.70;;;;;;5035031;28;20019;-73
2022/10/07 00:44:40;;;;;;;;;;;20.70;44.70;;;;;;5031535;28;19945;-74
2022/10/07 00:47:10;;;;;;;;;;;20.70;44.60;;;;;;5062236;28;19921;-70
2022/10/07 00:49:41;;;;;;;;;;;20.70;44.60;;;;;;5038162;28;20007;-72
2022/10/07 00:52:07;;;;;;;;;;;20.70;44.60;;;;;;5043436;28;20007;-72
2022/10/07 00:54:34;;;;;;;;;;;20.60;44.50;;;;;;5035448;28;19943;-72
2022/10/07 00:57:00;;;;;;;;;;;20.70;44.60;;;;;;5033409;28;19956;-71
2022/10/07 00:59:27;;;;;;;;;;;20.60;44.50;;;;;;5015506;28;19930;-72
2022/10/07 01:01:54;;;;;;;;;;;20.70;44.60;;;;;;5021932;28;19921;-71
2022/10/07 01:04:20;;;;;;;;;;;20.60;44.60;;;;;;5038901;28;19960;-73
2022/10/07 01:06:48;;;;;;;;;;;20.70;44.60;;;;;;5034008;28;20019;-73
2022/10/07 01:09:15;;;;;;;;;;;20.70;44.60;;;;;;5031338;28;20027;-69
2022/10/07 01:11:43;;;;;;;;;;;20.60;44.50;;;;;;5050540;28;19975;-74
2022/10/07 01:14:11;;;;;;;;;;;20.70;44.60;;;;;;5044829;28;20028;-74
2022/10/07 01:16:39;;;;;;;;;;;20.60;44.50;;;;;;5049832;28;19922;-70
2022/10/07 01:19:09;;;;;;;;;;;20.60;44.50;;;;;;5029690;28;19944;-70
2022/10/07 01:21:38;;;;;;;;;;;20.60;44.50;;;;;;5030676;28;19926;-73
2022/10/07 01:24:09;;;;;;;;;;;20.70;44.60;;;;;;5030659;28;19991;-72
2022/10/07 01:26:44;;;;;;;;;;;20.60;44.50;;;;;;5029821;28;19956;-70
2022/10/07 01:29:11;;;;;;;;;;;20.60;44.40;;;;;;5031876;28;19949;-73
2022/10/07 01:31:39;;;;;;;;;;;20.60;44.40;;;;;;5053347;28;19921;-72
2022/10/07 01:34:06;;;;;;;;;;;20.60;44.40;;;;;;5015381;28;19930;-72
2022/10/07 01:36:32;;;;;;;;;;;20.60;44.40;;;;;;5062516;28;20297;-74
2022/10/07 01:39:01;;;;;;;;;;;20.60;44.40;;;;;;5034542;28;19922;-74
2022/10/07 01:41:28;;;;;;;;;;;20.60;44.40;;;;;;5039056;28;19963;-71
2022/10/07 01:43:56;;;;;;;;;;;20.60;44.90;;;;;;5049935;28;19925;-74
2022/10/07 01:46:24;;;;;;;;;;;20.60;44.40;;;;;;5040279;28;20008;-71
2022/10/07 01:48:52;;;;;;;;;;;20.60;44.30;;;;;;5032094;28;20294;-72
2022/10/07 01:51:19;;;;;;;;;;;20.60;44.30;;;;;;5034627;28;19921;-75
2022/10/07 01:53:50;;;;;;;;;;;20.60;44.30;;;;;;5030116;28;19974;-73
2022/10/07 01:56:22;;;;;;;;;;;20.60;44.30;;;;;;5048780;28;19921;-73
2022/10/07 01:59:04;;;;;;;;;;;20.50;44.20;;;;;;5042345;28;19921;-75
2022/10/07 02:01:31;;;;;;;;;;;20.50;44.20;;;;;;5020346;28;19921;-71
2022/10/07 02:04:03;;;;;;;;;;;20.60;44.30;;;;;;5037158;28;19957;-72
2022/10/07 02:06:32;;;;;;;;;;;20.60;44.30;;;;;;5027145;28;19921;-72
2022/10/07 02:09:00;;;;;;;;;;;20.60;44.30;;;;;;5062009;28;20354;-74
2022/10/07 02:11:27;;;;;;;;;;;20.50;44.20;;;;;;5055867;28;19920;-69
2022/10/07 02:14:03;;;;;;;;;;;20.60;44.30;;;;;;5038905;28;19936;-73
2022/10/07 02:16:31;;;;;;;;;;;20.60;44.30;;;;;;5030267;28;19948;-73
2022/10/07 02:18:58;;;;;;;;;;;20.60;44.30;;;;;;5035594;28;19925;-72
2022/10/07 02:21:25;;;;;;;;;;;20.50;44.20;;;;;;5032778;28;20024;-71
2022/10/07 02:23:51;;;;;;;;;;;20.50;44.20;;;;;;5049773;28;20031;-74
2022/10/07 02:26:19;;;;;;;;;;;20.50;44.20;;;;;;5070878;28;19952;-72
2022/10/07 02:28:46;;;;;;;;;;;20.50;44.20;;;;;;5026247;28;19932;-73
2022/10/07 02:31:16;;;;;;;;;;;20.50;44.20;;;;;;5032813;28;19928;-73
2022/10/07 02:33:43;;;;;;;;;;;20.50;44.10;;;;;;5033314;28;19925;-74
2022/10/07 02:36:11;;;;;;;;;;;20.50;44.20;;;;;;5028617;28;19993;-68
2022/10/07 02:38:38;;;;;;;;;;;20.50;44.10;;;;;;5028477;28;19963;-74
2022/10/07 02:41:05;;;;;;;;;;;20.50;44.10;;;;;;5034190;28;19927;-73
2022/10/07 02:43:35;;;;;;;;;;;20.50;44.10;;;;;;5026977;28;19922;-71
2022/10/07 02:46:03;;;;;;;;;;;20.50;44.10;;;;;;5016000;28;19921;-74
2022/10/07 02:48:32;;;;;;;;;;;20.50;44.10;;;;;;5033928;28;20024;-69
2022/10/07 02:51:00;;;;;;;;;;;20.50;44.10;;;;;;5030383;28;19922;-73
2022/10/07 02:53:27;;;;;;;;;;;20.50;44.10;;;;;;5032503;28;19972;-71
2022/10/07 02:55:53;;;;;;;;;;;20.40;44.00;;;;;;5038816;28;19928;-72
2022/10/07 02:58:20;;;;;;;;;;;20.40;44.00;;;;;;5050975;28;19925;-71
2022/10/07 03:00:47;;;;;;;;;;;20.50;44.10;;;;;;5038165;28;19925;-66
2022/10/07 03:03:14;;;;;;;;;;;20.40;44.00;;;;;;5036708;28;19991;-74
2022/10/07 03:05:42;;;;;;;;;;;20.50;44.00;;;;;;5031598;28;19956;-70
2022/10/07 03:08:09;;;;;;;;;;;20.50;44.00;;;;;;5035419;28;19921;-74
2022/10/07 03:10:36;;;;;;;;;;;20.40;43.90;;;;;;5030913;28;19921;-74
2022/10/07 03:13:03;;;;;;;;;;;20.50;44.00;;;;;;5033890;28;19960;-74
2022/10/07 03:15:31;;;;;;;;;;;20.40;43.90;;;;;;5036519;28;19943;-74
2022/10/07 03:17:57;;;;;;;;;;;20.40;43.80;;;;;;5061248;28;19925;-74
2022/10/07 03:20:24;;;;;;;;;;;20.40;43.80;;;;;;5035618;28;19963;-72
2022/10/07 03:22:52;;;;;;;;;;;20.40;43.90;;;;;;5047731;28;19922;-71
2022/10/07 03:25:19;;;;;;;;;;;20.40;43.80;;;;;;5031690;28;19922;-73
2022/10/07 03:27:47;;;;;;;;;;;20.40;43.80;;;;;;5023391;28;19921;-73
2022/10/07 03:30:14;;;;;;;;;;;20.40;43.80;;;;;;5035340;28;20000;-73
2022/10/07 03:32:41;;;;;;;;;;;20.40;43.80;;;;;;5032766;28;19964;-73
2022/10/07 03:35:08;;;;;;;;;;;20.40;43.80;;;;;;5034751;28;20027;-71
2022/10/07 03:37:35;;;;;;;;;;;20.40;43.80;;;;;;5030405;28;19926;-74
2022/10/07 03:40:03;;;;;;;;;;;20.40;43.80;;;;;;5064361;28;19986;-70
2022/10/07 03:42:30;;;;;;;;;;;20.40;43.80;;;;;;5031655;28;19921;-72
2022/10/07 03:44:56;;;;;;;;;;;20.40;43.70;;;;;;5050741;28;19983;-73
2022/10/07 03:47:23;;;;;;;;;;;20.40;43.70;;;;;;5036234;28;19992;-69
2022/10/07 03:49:50;;;;;;;;;;;20.40;43.70;;;;;;5032480;28;19921;-70
2022/10/07 03:52:17;;;;;;;;;;;20.40;43.70;;;;;;5054412;28;19991;-72
2022/10/07 03:54:44;;;;;;;;;;;20.40;43.70;;;;;;5051079;28;20023;-71
2022/10/07 03:59:52;;;;;;;;;;;20.40;43.60;;;;;;5047597;28;19951;-73
2022/10/07 04:02:20;;;;;;;;;;;20.40;43.60;;;;;;5044230;28;20283;-69
2022/10/07 04:04:47;;;;;;;;;;;20.40;43.60;;;;;;5041598;28;19925;-71
2022/10/07 04:07:13;;;;;;;;;;;20.40;43.60;;;;;;5035197;28;19921;-74
2022/10/07 04:09:40;;;;;;;;;;;20.30;43.50;;;;;;5049936;28;20019;-72
2022/10/07 04:12:07;;;;;;;;;;;20.30;43.50;;;;;;5033810;28;20058;-70
2022/10/07 04:14:35;;;;;;;;;;;20.30;43.50;;;;;;5030622;28;19925;-74
2022/10/07 04:17:02;;;;;;;;;;;20.30;43.50;;;;;;5011796;28;19935;-74
2022/10/07 04:19:29;;;;;;;;;;;20.30;43.50;;;;;;5054616;28;20028;-75
2022/10/07 04:21:56;;;;;;;;;;;20.30;43.50;;;;;;5039495;28;20354;-74
2022/10/07 04:24:22;;;;;;;;;;;20.30;43.50;;;;;;5027751;28;20016;-70
2022/10/07 04:26:49;;;;;;;;;;;20.30;43.40;;;;;;5033254;28;20053;-75
2022/10/07 04:29:16;;;;;;;;;;;20.30;43.40;;;;;;5038158;28;19920;-69
2022/10/07 04:31:44;;;;;;;;;;;20.30;43.40;;;;;;5016768;28;19960;-74
2022/10/07 04:34:11;;;;;;;;;;;20.30;43.40;;;;;;5044014;28;19960;-74
2022/10/07 04:36:37;;;;;;;;;;;20.30;43.40;;;;;;5033251;28;19925;-72
2022/10/07 04:39:04;;;;;;;;;;;20.30;43.40;;;;;;5039775;28;19983;-71
2022/10/07 04:41:31;;;;;;;;;;;20.30;43.40;;;;;;5056798;28;19971;-70
2022/10/07 04:43:58;;;;;;;;;;;20.30;43.30;;;;;;5046821;28;19932;-73
2022/10/07 04:46:24;;;;;;;;;;;20.30;43.30;;;;;;5023313;28;19961;-72
2022/10/07 04:48:52;;;;;;;;;;;20.30;43.30;;;;;;5025587;28;19968;-73
2022/10/07 04:51:21;;;;;;;;;;;20.30;43.30;;;;;;5056256;28;19921;-72
2022/10/07 04:53:50;;;;;;;;;;;20.30;43.30;;;;;;5054608;28;19921;-74
2022/10/07 04:56:18;;;;;;;;;;;20.20;43.20;;;;;;5019091;28;19977;-75
2022/10/07 04:58:44;;;;;;;;;;;20.20;43.30;;;;;;5033009;28;19925;-74
2022/10/07 05:01:11;;;;;;;;;;;20.20;43.20;;;;;;5047430;28;19990;-75
2022/10/07 05:03:38;;;;;;;;;;;20.20;43.20;;;;;;5052476;28;19996;-71
2022/10/07 05:06:07;;;;;;;;;;;20.20;43.20;;;;;;5036520;28;19932;-73
2022/10/07 05:08:34;;;;;;;;;;;20.20;43.20;;;;;;5037655;28;20019;-72
2022/10/07 05:11:01;;;;;;;;;;;20.20;43.20;;;;;;5072305;28;19939;-75
2022/10/07 05:13:28;;;;;;;;;;;20.20;43.10;;;;;;5053909;28;19929;-69
2022/10/07 05:15:55;;;;;;;;;;;20.20;43.10;;;;;;5051454;28;20021;-74
2022/10/07 05:18:25;;;;;;;;;;;20.20;43.10;;;;;;5050617;28;20420;-69
2022/10/07 05:20:51;;;;;;;;;;;20.20;43.10;;;;;;5052877;28;20007;-72
2022/10/07 05:23:20;;;;;;;;;;;20.20;43.10;;;;;;5063099;28;19922;-74
2022/10/07 05:25:47;;;;;;;;;;;20.20;43.10;;;;;;5032141;28;19957;-73
2022/10/07 05:28:14;;;;;;;;;;;20.20;43.00;;;;;;5035073;28;19976;-73
2022/10/07 05:30:40;;;;;;;;;;;20.20;43.10;;;;;;5036996;28;19925;-71
2022/10/07 05:33:08;;;;;;;;;;;20.20;43.00;;;;;;5035544;28;20016;-70
2022/10/07 05:35:35;;;;;;;;;;;20.20;43.00;;;;;;5037236;28;19921;-73
2022/10/07 05:38:02;;;;;;;;;;;20.20;43.00;;;;;;5040232;28;19945;-74
2022/10/07 05:40:30;;;;;;;;;;;20.10;43.00;;;;;;5035731;28;19975;-75
2022/10/07 05:42:56;;;;;;;;;;;20.20;43.10;;;;;;5036276;28;19944;-75
2022/10/07 05:45:24;;;;;;;;;;;20.20;43.10;;;;;;5047515;28;19993;-76
2022/10/07 05:47:51;;;;;;;;;;;20.20;43.10;;;;;;5017208;28;20112;-75
2022/10/07 05:50:19;;;;;;;;;;;20.20;43.10;;;;;;5035814;28;19921;-74
2022/10/07 05:52:46;;;;;;;;;;;20.20;43.10;;;;;;5040402;28;19952;-74
2022/10/07 05:55:13;;;;;;;;;;;20.20;43.10;;;;;;5034386;28;19936;-74
2022/10/07 05:57:41;;;;;;;;;;;20.20;43.10;;;;;;5053948;28;20420;-71
2022/10/07 06:00:08;;;;;;;;;;;20.10;43.00;;;;;;5030513;28;19922;-75
2022/10/07 06:02:37;;;;;;;;;;;20.20;43.20;;;;;;5048561;28;19921;-75
2022/10/07 06:05:04;;;;;;;;;;;20.20;43.20;;;;;;5031510;28;19921;-71
2022/10/07 06:07:31;;;;;;;;;;;20.10;43.00;;;;;;5032235;28;20023;-71
2022/10/07 06:15:29;;;;;;;;;;;20.20;43.10;;;;;;5044380;28;19991;-75
2022/10/07 06:17:56;;;;;;;;;;;20.10;43.10;;;;;;5032636;28;19928;-72
2022/10/07 06:20:23;;;;;;;;;;;20.10;43.10;;;;;;5031931;28;19967;-72
2022/10/07 06:22:49;;;;;;;;;;;20.10;43.10;;;;;;5033572;28;19924;-75
2022/10/07 06:25:16;;;;;;;;;;;20.10;43.10;;;;;;5033502;28;19925;-73
2022/10/07 06:27:44;;;;;;;;;;;20.10;43.10;;;;;;5039841;28;19956;-76
2022/10/07 06:30:11;;;;;;;;;;;20.10;43.10;;;;;;5040550;28;19975;-75
2022/10/07 06:32:38;;;;;;;;;;;20.10;43.10;;;;;;5019118;28;19926;-72
2022/10/07 06:35:05;;;;;;;;;;;20.10;43.10;;;;;;5040096;28;19925;-76
2022/10/07 06:37:32;;;;;;;;;;;20.20;43.20;;;;;;5032101;28;19971;-74
2022/10/07 06:39:59;;;;;;;;;;;20.20;43.20;;;;;;5049222;28;19921;-75
2022/10/07 06:42:25;;;;;;;;;;;20.20;43.30;;;;;;5013593;28;19922;-71
2022/10/07 06:44:54;;;;;;;;;;;20.10;43.10;;;;;;5037899;28;19921;-73
2022/10/07 06:47:21;;;;;;;;;;;20.10;43.10;;;;;;5035883;28;19928;-68
2022/10/07 06:49:47;;;;;;;;;;;20.10;43.20;;;;;;5031457;28;19929;-75
2022/10/07 06:52:14;;;;;;;;;;;20.20;43.30;;;;;;5032850;28;20375;-75
2022/10/07 06:54:41;;;;;;;;;;;20.20;43.30;;;;;;5032756;28;19962;-72
2022/10/07 06:57:08;;;;;;;;;;;20.20;43.30;;;;;;5020596;28;20367;-74
2022/10/07 06:59:34;;;;;;;;;;;20.20;43.30;;;;;;5024421;28;19921;-74
2022/10/07 07:02:03;;;;;;;;;;;20.20;43.30;;;;;;5034027;28;20418;-75
2022/10/07 07:04:29;;;;;;;;;;;20.20;43.30;;;;;;5016439;28;20079;-74
2022/10/07 07:06:56;;;;;;;;;;;20.20;43.40;;;;;;5023328;28;20028;-75
2022/10/07 07:09:23;;;;;;;;;;;20.20;43.40;;;;;;5042186;28;20014;-76
2022/10/07 07:11:49;;;;;;;;;;;20.20;43.40;;;;;;5045201;28;19978;-76
2022/10/07 07:14:17;;;;;;;;;;;20.20;43.40;;;;;;5034111;28;20691;-74
2022/10/07 07:16:44;;;;;;;;;;;20.20;43.50;;;;;;5032836;28;19921;-78
2022/10/07 07:19:13;;;;;;;;;;;20.20;43.50;;;;;;5051312;28;19964;-76
2022/10/07 07:21:40;;;;;;;;;;;20.20;43.50;;;;;;5058159;28;20036;-71
2022/10/07 07:24:07;;;;;;;;;;;20.20;43.50;;;;;;5023445;28;19928;-74
2022/10/07 07:26:33;;;;;;;;;;;20.20;43.50;;;;;;5047944;28;19921;-74
2022/10/07 07:29:01;;;;;;;;;;;20.20;43.50;;;;;;5055458;28;19943;-72
2022/10/07 07:31:28;;;;;;;;;;;20.20;43.50;;;;;;5035140;28;19928;-76
2022/10/07 07:33:56;;;;;;;;;;;20.20;43.60;;;;;;5038879;28;20019;-72
2022/10/07 07:36:24;;;;;;;;;;;20.20;43.60;;;;;;5060588;28;19975;-72
2022/10/07 07:38:51;;;;;;;;;;;20.20;43.60;;;;;;5041309;28;19921;-74
2022/10/07 07:41:18;;;;;;;;;;;20.20;43.70;;;;;;5039401;28;19931;-73
2022/10/07 07:43:47;;;;;;;;;;;20.20;43.70;;;;;;5038657;28;19921;-76
2022/10/07 07:46:14;;;;;;;;;;;20.20;43.70;;;;;;5033669;28;19925;-73
2022/10/07 07:48:44;;;;;;;;;;;20.30;43.80;;;;;;5067348;28;19925;-75
2022/10/07 07:51:11;;;;;;;;;;;20.20;43.80;;;;;;5055481;28;19932;-73
2022/10/07 07:53:39;;;;;;;;;;;20.30;43.80;;;;;;5054393;28;19943;-72
2022/10/07 07:56:05;;;;;;;;;;;20.30;43.80;;;;;;5067056;28;19971;-70
2022/10/07 07:58:32;;;;;;;;;;;20.30;43.90;;;;;;5045310;28;19945;-76
2022/10/07 08:00:59;;;;;;;;;;;20.30;43.90;;;;;;5070451;28;20031;-75
2022/10/07 08:03:26;;;;;;;;;;;20.30;43.90;;;;;;5044145;28;20002;-70
2022/10/07 08:05:53;;;;;;;;;;;20.30;43.90;;;;;;5045037;28;20027;-71
2022/10/07 08:08:19;;;;;;;;;;;20.30;44.00;;;;;;5040437;28;19925;-76
2022/10/07 08:10:47;;;;;;;;;;;20.30;44.00;;;;;;5043852;28;19921;-72
2022/10/07 08:13:14;;;;;;;;;;;20.30;44.00;;;;;;5056044;28;19921;-75
2022/10/07 08:15:41;;;;;;;;;;;20.30;44.00;;;;;;5053900;28;19983;-75
2022/10/07 08:18:08;;;;;;;;;;;20.30;44.10;;;;;;5062029;28;19950;-71
2022/10/07 08:20:35;;;;;;;;;;;20.30;44.10;;;;;;5069388;28;19975;-73
2022/10/07 08:23:02;;;;;;;;;;;20.30;44.10;;;;;;5052317;28;19921;-69
2022/10/07 08:25:29;;;;;;;;;;;20.30;44.10;;;;;;5051869;28;20004;-71
2022/10/07 08:27:57;;;;;;;;;;;20.30;44.10;;;;;;5047389;28;19927;-75
2022/10/07 08:30:24;;;;;;;;;;;20.30;44.20;;;;;;5046023;28;19956;-70
2022/10/07 08:32:51;;;;;;;;;;;20.30;44.20;;;;;;5049653;28;19925;-74
2022/10/07 08:35:17;;;;;;;;;;;20.30;44.20;;;;;;5063326;28;19921;-74
2022/10/07 08:37:44;;;;;;;;;;;20.40;44.30;;;;;;5044885;28;19974;-71
2022/10/07 08:40:13;;;;;;;;;;;20.40;44.40;;;;;;5044386;28;20278;-76
2022/10/07 08:42:40;;;;;;;;;;;20.40;44.30;;;;;;5062465;28;19925;-76
2022/10/07 08:45:10;;;;;;;;;;;20.30;44.30;;;;;;5036412;28;19959;-73
2022/10/07 08:47:37;;;;;;;;;;;20.40;44.40;;;;;;5037365;28;19921;-76
2022/10/07 08:50:06;;;;;;;;;;;20.30;44.30;;;;;;5056179;28;19979;-73
2022/10/07 08:52:41;;;;;;;;;;;20.40;44.40;;;;;;5046756;28;19921;-73
2022/10/07 08:55:14;;;;;;;;;;;20.40;44.50;;;;;;5059792;28;19925;-70
2022/10/07 08:57:45;;;;;;;;;;;20.40;44.50;;;;;;5041596;28;19925;-74
2022/10/07 09:00:16;;;;;;;;;;;20.40;44.50;;;;;;5042924;28;19964;-75
2022/10/07 09:02:45;;;;;;;;;;;20.40;44.50;;;;;;5054390;28;19924;-76
2022/10/07 09:05:16;;;;;;;;;;;20.40;44.50;;;;;;5042588;28;19947;-74
2022/10/07 09:07:46;;;;;;;;;;;20.40;44.50;;;;;;5042131;28;19986;-69
2022/10/07 09:10:17;;;;;;;;;;;20.40;44.60;;;;;;5042898;28;19921;-75
2022/10/07 09:12:44;;;;;;;;;;;20.40;44.60;;;;;;5027082;28;19921;-73
2022/10/07 09:15:15;;;;;;;;;;;20.40;44.60;;;;;;5042211;28;19921;-73
2022/10/07 09:17:43;;;;;;;;;;;20.40;44.60;;;;;;5058451;28;19967;-75
2022/10/07 09:20:12;;;;;;;;;;;20.40;45.20;;;;;;5040229;28;19948;-71
2022/10/07 09:22:39;;;;;;;;;;;20.40;44.70;;;;;;5056191;28;19939;-75
2022/10/07 09:25:15;;;;;;;;;;;20.40;44.70;;;;;;5057321;28;19921;-73
2022/10/07 09:27:42;;;;;;;;;;;20.40;44.70;;;;;;5042191;28;19921;-75
2022/10/07 09:30:09;;;;;;;;;;;20.40;44.70;;;;;;5035497;28;19921;-73
2022/10/07 09:32:37;;;;;;;;;;;20.50;44.80;;;;;;5044204;28;20006;-72
2022/10/07 09:35:05;;;;;;;;;;;20.40;44.80;;;;;;5037051;28;19936;-70
2022/10/07 09:37:31;;;;;;;;;;;20.40;44.80;;;;;;5040810;28;20302;-74
2022/10/07 09:40:17;;;;;;;;;;;20.50;44.80;;;;;;5034865;28;19921;-73
2022/10/07 09:42:44;;;;;;;;;;;20.50;44.90;;;;;;5038739;28;19932;-73
2022/10/07 09:45:18;;;;;;;;;;;20.50;44.90;;;;;;5043272;28;19948;-74
2022/10/07 09:47:47;;;;;;;;;;;20.50;44.90;;;;;;5051110;28;19956;-73
2022/10/07 09:50:29;;;;;;;;;;;20.50;44.90;;;;;;5049278;28;19921;-75
2022/10/07 09:52:55;;;;;;;;;;;20.50;44.90;;;;;;5032160;28;19937;-72
2022/10/07 09:55:30;;;;;;;;;;;20.40;44.90;;;;;;5010323;28;19967;-70
2022/10/07 09:57:58;;;;;;;;;;;20.50;45.00;;;;;;5022373;28;19921;-74
2022/10/07 10:00:25;;;;;;;;;;;20.40;45.00;;;;;;5046455;28;19943;-76
2022/10/07 10:02:54;;;;;;;;;;;20.50;45.20;;;;;;5025164;28;19925;-75
2022/10/07 10:05:23;;;;;;;;;;;20.50;45.20;;;;;;5026034;28;19934;-76
2022/10/07 10:07:52;;;;;;;;;;;20.50;45.20;;;;;;5045735;28;19945;-77
2022/10/07 10:10:21;;;;;;;;;;;20.50;45.10;;;;;;5029313;28;19949;-72
2022/10/07 10:12:48;;;;;;;;;;;20.50;45.00;;;;;;5027333;28;19941;-72
2022/10/07 10:15:18;;;;;;;;;;;20.50;44.90;;;;;;5042711;28;20439;-71
2022/10/07 10:17:45;;;;;;;;;;;20.50;44.90;;;;;;5029804;28;20008;-70
2022/10/07 10:20:38;;;;;;;;;;;20.50;44.90;;;;;;5034973;28;19921;-74
2022/10/07 10:23:23;;;;;;;;;;;20.50;44.80;;;;;;5030561;28;19928;-70
2022/10/07 10:28:41;;;;;;;;;;;20.50;44.80;;;;;;5031516;28;19921;-76
2022/10/07 10:31:09;;;;;;;;;;;20.50;44.70;;;;;;5030221;28;19925;-74
2022/10/07 10:33:36;;;;;;;;;;;20.50;44.70;;;;;;5029592;28;19929;-73
2022/10/07 10:36:06;;;;;;;;;;;20.50;44.70;;;;;;5031857;28;19921;-73
2022/10/07 10:38:35;;;;;;;;;;;20.50;44.70;;;;;;5034690;28;19948;-76
2022/10/07 10:41:03;;;;;;;;;;;20.50;44.70;;;;;;5031811;28;19973;-74
2022/10/07 10:43:33;;;;;;;;;;;20.50;44.70;;;;;;5020804;28;19921;-74
2022/10/07 10:46:07;;;;;;;;;;;20.50;44.70;;;;;;5020751;28;19921;-72
2022/10/07 10:48:35;;;;;;;;;;;20.50;44.70;;;;;;5021518;28;19952;-72
2022/10/07 10:51:12;;;;;;;;;;;20.50;44.80;;;;;;5042895;28;19975;-72
2022/10/07 10:53:42;;;;;;;;;;;20.50;44.70;;;;;;5032973;28;19929;-73
2022/10/07 10:56:21;;;;;;;;;;;20.50;44.80;;;;;;5029497;28;19983;-71
2022/10/07 10:58:57;;;;;;;;;;;20.50;44.70;;;;;;5034130;28;19929;-69
2022/10/07 11:01:26;;;;;;;;;;;20.50;44.70;;;;;;5050133;28;20319;-73
2022/10/07 11:04:00;;;;;;;;;;;20.60;44.80;;;;;;5030311;28;19925;-72
2022/10/07 11:06:27;;;;;;;;;;;20.60;44.80;;;;;;5037150;28;20028;-68
2022/10/07 11:08:56;;;;;;;;;;;20.60;44.80;;;;;;5052262;28;19921;-76
2022/10/07 11:11:22;;;;;;;;;;;20.50;44.80;;;;;;5039987;28;19929;-72
2022/10/07 11:13:51;;;;;;;;;;;20.60;44.90;;;;;;5055712;28;20335;-75
2022/10/07 11:16:19;;;;;;;;;;;20.60;44.90;;;;;;5053586;28;19967;-70
2022/10/07 11:18:47;;;;;;;;;;;20.60;44.90;;;;;;5043596;28;20351;-75
2022/10/07 11:21:16;;;;;;;;;;;20.60;44.90;;;;;;5033447;28;20260;-69
2022/10/07 11:23:44;;;;;;;;;;;20.60;44.90;;;;;;5043106;28;20511;-72
2022/10/07 11:26:16;;;;;;;;;;;20.60;45.00;;;;;;5035011;28;19979;-71
2022/10/07 11:28:43;;;;;;;;;;;20.60;45.00;;;;;;5042118;28;19925;-76
2022/10/07 11:31:14;;;;;;;;;;;20.70;45.10;;;;;;5031551;28;20020;-75
2022/10/07 11:33:43;;;;;;;;;;;20.70;45.10;;;;;;5032809;28;20433;-75
2022/10/07 11:36:13;;;;;;;;;;;20.60;44.90;;;;;;5040253;28;19921;-76
2022/10/07 11:38:39;;;;;;;;;;;20.60;44.90;;;;;;5030975;28;19951;-72
2022/10/07 11:41:07;;;;;;;;;;;20.70;45.00;;;;;;5046844;28;19921;-70
2022/10/07 11:43:37;;;;;;;;;;;20.70;45.00;;;;;;5043677;28;19925;-72
2022/10/07 11:46:05;;;;;;;;;;;20.60;44.90;;;;;;5033947;28;19921;-74
2022/10/07 11:48:33;;;;;;;;;;;20.70;45.10;;;;;;5046769;28;19936;-80
2022/10/07 11:51:01;;;;;;;;;;;20.70;45.10;;;;;;5029211;28;19925;-73
2022/10/07 11:53:28;;;;;;;;;;;20.70;45.00;;;;;;5026944;28;19921;-80
2022/10/07 11:55:56;;;;;;;;;;;20.70;45.00;;;;;;5032287;28;19921;-82
2022/10/07 11:58:24;;;;;;;;;;;20.70;45.00;;;;;;5034886;28;19943;-80
2022/10/07 12:00:52;;;;;;;;;;;20.70;45.00;;;;;;5031471;28;20027;-81
2022/10/07 12:03:37;;;;;;;;;;;20.70;45.00;;;;;;5028526;28;20314;-72
2022/10/07 12:06:08;;;;;;;;;;;20.70;45.10;;;;;;5032394;28;19929;-81
2022/10/07 12:08:35;;;;;;;;;;;20.70;45.10;;;;;;5049791;28;19925;-77
2022/10/07 12:11:30;;;;;;;;;;;20.70;45.10;;;;;;5029678;28;19968;-78
2022/10/07 12:13:57;;;;;;;;;;;20.70;45.10;;;;;;5046713;28;20354;-81
2022/10/07 12:16:42;;;;;;;;;;;20.80;45.20;;;;;;5045922;28;19983;-78
2022/10/07 12:19:15;;;;;;;;;;;20.70;45.10;;;;;;5044567;28;20048;-70
2022/10/07 12:22:01;;;;;;;;;;;20.70;45.20;;;;;;5033097;28;19925;-80
2022/10/07 12:24:28;;;;;;;;;;;20.70;45.20;;;;;;5032708;28;19975;-79
2022/10/07 12:26:55;;;;;;;;;;;20.70;45.20;;;;;;5050837;28;19921;-76
2022/10/07 12:29:26;;;;;;;;;;;20.70;45.20;;;;;;5036801;28;19936;-80
2022/10/07 12:31:54;;;;;;;;;;;20.70;45.10;;;;;;5031404;28;19925;-80
2022/10/07 12:34:22;;;;;;;;;;;20.70;45.20;;;;;;5032705;28;20028;-79
2022/10/07 12:36:48;;;;;;;;;;;20.80;45.30;;;;;;5041493;28;20357;-80
2022/10/07 12:39:33;;;;;;;;;;;20.80;45.30;;;;;;5035518;28;20011;-78
2022/10/07 12:42:00;;;;;;;;;;;20.80;45.30;;;;;;5024074;28;19967;-81
2022/10/07 12:44:27;;;;;;;;;;;20.80;45.30;;;;;;5034357;28;19968;-79
2022/10/07 12:46:55;;;;;;;;;;;20.80;45.30;;;;;;5033753;28;20012;-80
2022/10/07 12:49:23;;;;;;;;;;;20.80;45.30;;;;;;5028686;28;19921;-74
2022/10/07 12:51:50;;;;;;;;;;;20.80;45.40;;;;;;5034863;28;19952;-79
2022/10/07 12:54:19;;;;;;;;;;;20.80;45.40;;;;;;5031944;28;19928;-81
2022/10/07 12:56:45;;;;;;;;;;;20.80;45.40;;;;;;5045104;28;20229;-81
2022/10/07 13:02:19;;;;;;;;;;;20.80;45.40;;;;;;5045769;28;20016;-81
2022/10/07 13:04:53;;;;;;;;;;;20.80;45.40;;;;;;5018838;28;19933;-79
2022/10/07 13:07:35;;;;;;;;;;;20.80;45.40;;;;;;5050419;28;19921;-79
2022/10/07 13:10:09;;;;;;;;;;;20.80;45.40;;;;;;5015454;28;19933;-80
2022/10/07 13:12:38;;;;;;;;;;;20.80;45.40;;;;;;5041333;28;19965;-75
2022/10/07 13:15:07;;;;;;;;;;;20.80;45.40;;;;;;5034622;28;19967;-73
2022/10/07 13:17:37;;;;;;;;;;;20.80;45.40;;;;;;5032151;28;19921;-77
2022/10/07 13:22:46;;;;;;;;;;;20.80;45.40;;;;;;5088026;22;19928;-64
2022/10/07 13:25:13;;;;;;;;;;;20.80;45.40;;;;;;5070215;28;19929;-64
2022/10/07 13:27:40;;;;;;;;;;;20.80;45.40;;;;;;5066213;28;19972;-65
2022/10/07 13:30:09;;;;;;;;;;;20.90;45.50;;;;;;5071023;28;20111;-65
2022/10/07 13:32:36;;;;;;;;;;;20.80;45.50;;;;;;5070426;28;19925;-66
2022/10/07 13:35:17;;;;;;;;;;;20.80;45.40;;;;;;5064616;28;19932;-65
2022/10/07 13:37:46;;;;;;;;;;;20.80;45.50;;;;;;5055546;28;19928;-66
2022/10/07 13:40:19;;;;;;;;;;;20.80;45.50;;;;;;5055450;28;19932;-66
2022/10/07 13:42:48;;;;;;;;;;;20.90;46.00;;;;;;5060739;28;19924;-66
2022/10/07 13:45:14;;;;;;;;;;;20.90;45.50;;;;;;5067763;28;19976;-66
2022/10/07 13:47:41;;;;;;;;;;;20.90;45.50;;;;;;5056359;28;19970;-66
2022/10/07 13:50:08;;;;;;;;;;;20.90;45.50;;;;;;5070600;28;19946;-65
2022/10/07 13:52:35;;;;;;;;;;;20.80;45.50;;;;;;5063988;28;19965;-65
2022/10/07 13:55:03;;;;;;;;;;;20.90;45.50;;;;;;5064756;28;19997;-66
2022/10/07 13:57:30;;;;;;;;;;;20.90;45.50;;;;;;5060867;28;19978;-65
2022/10/07 13:59:58;;;;;;;;;;;20.90;45.60;;;;;;5080080;28;19960;-66
2022/10/07 14:02:24;;;;;;;;;;;20.90;45.50;;;;;;5074769;28;19928;-65
2022/10/07 14:04:55;;;;;;;;;;;20.90;45.50;;;;;;5076431;28;19928;-66
2022/10/07 14:07:22;;;;;;;;;;;20.90;45.50;;;;;;5080116;28;20007;-66
2022/10/07 14:09:49;;;;;;;;;;;20.90;45.50;;;;;;5083906;28;20023;-66
2022/10/07 14:12:18;;;;;;;;;;;20.90;45.50;;;;;;5059652;28;19928;-66
2022/10/07 14:14:45;;;;;;;;;;;20.90;45.50;;;;;;5064871;28;19933;-66
2022/10/07 14:17:17;;;;;;;;;;;20.90;45.50;;;;;;5065935;28;20131;-66
2022/10/07 14:19:43;;;;;;;;;;;20.90;45.50;;;;;;5060067;28;19977;-66
2022/10/07 14:22:15;;;;;;;;;;;20.90;45.50;;;;;;5068383;28;19924;-66
2022/10/07 14:24:42;;;;;;;;;;;20.90;45.50;;;;;;5059049;28;19978;-66
2022/10/07 14:27:24;;;;;;;;;;;20.90;45.50;;;;;;5081598;28;20453;-67
2022/10/07 14:29:53;;;;;;;;;;;20.90;45.50;;;;;;5060427;28;19931;-65
2022/10/07 14:35:20;;;;;;;;;;;20.90;45.60;;;;;;5066792;28;20398;-65
2022/10/07 14:37:48;;;;;;;;;;;20.90;45.50;;;;;;5063039;28;20027;-65
2022/10/07 14:40:22;;;;;;;;;;;20.90;45.50;;;;;;5069230;28;19928;-65
2022/10/07 14:42:49;;;;;;;;;;;20.90;45.50;;;;;;5055499;28;19928;-65